Time;durP1;ratioP1;P1;durP2;ratioP2;P2;SDS_P1;SDS_P2;PMS_P1;PMS_P2;Temp;Humidity;BMP_temperature;BMP_pressure;BME280_temperature;BME280_humidity;BME280_pressure;Samples;Min_cycle;Max_cycle;Signal;HPM_P1;HPM_P2
2021/08/17 00:00:35;;;;;;;17.27;8.58;;;;;;;22.37;56.12;99399.36;373998;142;867761;-66
2021/08/17 00:01:37;;;;;;;16.37;9.59;;;;;;;;;;363115;145;859052;-67
2021/08/17 00:02:38;;;;;;;21.31;10.22;;;;;;;;;;363159;145;859243;-66
2021/08/17 00:03:40;;;;;;;21.49;10.68;;;;;;;;;;363842;145;857357;-67
2021/08/17 00:04:42;;;;;;;18.80;10.29;;;;;;;;;;361547;146;857255;-67
2021/08/17 00:05:43;;;;;;;16.09;10.01;;;;;;;;;;365549;145;857283;-65
2021/08/17 00:06:46;;;;;;;17.44;9.30;;;;;;;;;;364741;147;857292;-66
2021/08/17 00:07:47;;;;;;;16.62;9.76;;;;;;;;;;364541;145;865219;-66
2021/08/17 00:08:49;;;;;;;19.74;10.50;;;;;;;;;;361984;145;858339;-66
2021/08/17 00:09:51;;;;;;;19.80;9.91;;;;;;;;;;365321;145;857021;-66
2021/08/17 00:10:52;;;;;;;19.11;9.51;;;;;;;;;;365647;147;857298;-66
2021/08/17 00:11:54;;;;;;;23.14;10.16;;;;;;;;;;362587;146;864910;-66
2021/08/17 00:12:55;;;;;;;18.31;9.81;;;;;;;;;;365095;145;857243;-66
2021/08/17 00:13:57;;;;;;;15.20;10.26;;;;;;;;;;362156;147;857277;-66
2021/08/17 00:14:59;;;;;;;15.81;9.34;;;;;;;;;;365867;145;858960;-64
2021/08/17 00:16:00;;;;;;;16.95;10.08;;;;;;;;;;358727;148;858378;-65
2021/08/17 00:17:02;;;;;;;16.49;9.71;;;;;;;;;;356939;147;865100;-65
2021/08/17 00:18:04;;;;;;;15.42;9.71;;;;;;;;;;362564;144;857355;-64
2021/08/17 00:19:05;;;;;;;18.53;9.81;;;;;;;;;;359953;146;857850;-65
2021/08/17 00:20:08;;;;;;;20.73;10.02;;;;;;;;;;359809;147;857398;-64
2021/08/17 00:21:12;;;;;;;14.36;9.33;;;;;;;;;;359233;147;859614;-64
2021/08/17 00:22:14;;;;;;;20.01;10.22;;;;;;;;;;359542;147;861783;-64
2021/08/17 00:23:15;;;;;;;17.69;9.82;;;;;;;;;;346408;153;857365;-64
2021/08/17 00:24:17;;;;;;;15.18;9.37;;;;;;;;;;347027;153;857439;-65
2021/08/17 00:25:19;;;;;;;16.03;9.29;;;;;;;;;;361034;147;857425;-64
2021/08/17 00:26:22;;;;;;;16.51;9.63;;;;;;;;;;359027;147;857539;-67
2021/08/17 00:27:24;;;;;;;17.86;10.14;;;;;;;;;;357104;147;858928;-67
2021/08/17 00:28:25;;;;;;;15.69;10.15;;;;;;;;;;352794;152;865069;-66
2021/08/17 00:29:27;;;;;;;14.84;9.79;;;;;;;;;;356323;148;857864;-66
2021/08/17 00:30:29;;;;;;;18.01;10.37;;;;;;;;;;358530;147;857372;-67
2021/08/17 00:31:31;;;;;;;18.49;10.60;;;;;;;;;;359327;150;857305;-67
2021/08/17 00:32:32;;;;;;;20.60;10.21;;;;;;;;;;359402;150;857915;-67
2021/08/17 00:33:34;;;;;;;24.01;11.20;;;;;;;;;;359474;148;859031;-68
2021/08/17 00:34:35;;;;;;;20.21;11.44;;;;;;;;;;357873;147;864726;-68
2021/08/17 00:35:37;;;;;;;16.07;10.19;;;;;;;;;;357668;150;857298;-68
2021/08/17 00:36:40;;;;;;;26.27;11.28;;;;;;;;;;359222;147;857253;-68
2021/08/17 00:37:42;;;;;;;29.99;11.94;;;;;;;;;;359764;147;857846;-67
2021/08/17 00:38:43;;;;;;;22.51;12.09;;;;;;;;;;358776;150;859429;-68
2021/08/17 00:39:45;;;;;;;27.16;11.97;;;;;;;;;;358883;148;858991;-69
2021/08/17 00:40:47;;;;;;;21.29;10.47;;;;;;;;;;360509;147;857359;-68
2021/08/17 00:41:48;;;;;;;25.95;11.64;;;;;;;;;;358262;147;864747;-68
2021/08/17 00:42:50;;;;;;;22.62;10.41;;;;;;;;;;359272;150;857306;-68
2021/08/17 00:43:53;;;;;;;16.74;10.61;;;;;;;;;;359234;148;866537;-68
2021/08/17 00:44:54;;;;;;;16.94;10.01;;;;;;;;;;358312;147;858921;-68
2021/08/17 00:45:56;;;;;;;19.89;10.38;;;;;;;;;;358886;150;857316;-67
2021/08/17 00:46:58;;;;;;;18.97;10.56;;;;;;;;;;359763;147;859050;-67
2021/08/17 00:47:59;;;;;;;22.66;10.62;;;;;;;;;;360436;147;866186;-66
2021/08/17 00:49:01;;;;;;;18.41;10.86;;;;;;;;;;357828;147;859058;-66
2021/08/17 00:50:03;;;;;;;21.49;10.46;;;;;;;;;;358805;147;857403;-66
2021/08/17 00:51:07;;;;;;;21.34;10.21;;;;;;;;;;358217;147;864898;-66
2021/08/17 00:52:09;;;;;;;18.85;10.58;;;;;;;;;;359760;147;858368;-66
2021/08/17 00:53:11;;;;;;;15.19;10.03;;;;;;;;;;359308;147;859727;-66
2021/08/17 00:54:13;;;;;;;19.28;9.50;;;;;;;;;;360007;147;857225;-66
2021/08/17 00:55:14;;;;;;;16.78;10.62;;;;;;;;;;359881;147;857212;-67
2021/08/17 00:56:17;;;;;;;17.44;10.53;;;;;;;;;;357974;147;865052;-66
2021/08/17 00:57:19;;;;;;;16.28;10.07;;;;;;;;;;361211;147;857209;-66
2021/08/17 00:58:21;;;;;;;17.61;10.26;;;;;;;;;;359597;147;858359;-66
2021/08/17 00:59:22;;;;;;;16.99;9.94;;;;;;;;;;360029;147;859620;-66
2021/08/17 01:00:25;;;;;;;17.05;10.05;;;;;;;;;;358653;149;864848;-66
2021/08/17 01:01:26;;;;;;;15.73;9.95;;;;;;;;;;357638;148;857298;-67
2021/08/17 01:02:28;;;;;;;18.26;9.98;;;;;;;;;;356924;148;857299;-67
2021/08/17 01:03:30;;;;;;;19.32;10.04;;;;;;;;;;357099;151;857460;-65
2021/08/17 01:04:32;;;;;;;17.01;10.36;;;;;;;;;;357078;151;860206;-68
2021/08/17 01:05:34;;;;;;;21.69;10.39;;;;;;;;;;356068;148;857360;-64
2021/08/17 01:06:38;;;;;;;16.69;10.17;;;;;;;;;;355972;149;857699;-63
2021/08/17 01:07:40;;;;;;;16.37;9.21;;;;;;;;;;355595;148;857800;-65
2021/08/17 01:08:42;;;;;;;18.81;10.22;;;;;;;;;;350054;150;857736;-65
2021/08/17 01:09:44;;;;;;;15.21;10.23;;;;;;;;;;340874;154;859145;-64
2021/08/17 01:10:47;;;;;;;19.80;10.93;;;;;;;;;;349015;151;858220;-65
2021/08/17 01:11:49;;;;;;;13.84;9.75;;;;;;;;;;350167;151;856738;-64
2021/08/17 01:12:50;;;;;;;17.34;10.42;;;;;;;;;;349929;151;863742;-65
2021/08/17 01:13:52;;;;;;;19.50;10.22;;;;;;;;;;357212;151;863655;-65
2021/08/17 01:14:54;;;;;;;15.50;10.36;;;;;;;;;;356118;148;856142;-65
2021/08/17 01:15:56;;;;;;;17.61;10.74;;;;;;;;;;354454;148;856220;-67
2021/08/17 01:16:58;;;;;;;16.36;10.20;;;;;;;;;;353864;149;863792;-67
2021/08/17 01:18:00;;;;;;;14.18;9.61;;;;;;;;;;355140;151;863850;-67
2021/08/17 01:20:50;;;;;;;14.07;9.94;;;;;;;21.60;58.82;99390.95;372922;142;882103;-65
2021/08/17 01:21:52;;;;;;;14.74;9.89;;;;;;;21.53;58.75;99399.36;366108;147;858080;-67
2021/08/17 01:22:54;;;;;;;17.92;9.83;;;;;;;21.52;58.94;99395.86;365107;147;859126;-67
2021/08/17 01:23:56;;;;;;;18.29;9.65;;;;;;;21.52;58.66;99408.20;365609;146;866706;-66
2021/08/17 01:24:58;;;;;;;18.11;9.69;;;;;;;21.51;58.88;99399.44;365892;147;858714;-67
2021/08/17 01:26:00;;;;;;;17.54;9.99;;;;;;;21.51;59.00;99401.23;365912;146;858432;-67
2021/08/17 01:27:02;;;;;;;16.70;9.84;;;;;;;21.52;58.66;99406.39;364869;146;865145;-66
2021/08/17 01:28:04;;;;;;;15.80;9.66;;;;;;;21.54;59.00;99401.88;365797;146;865943;-67
2021/08/17 01:29:10;;;;;;;18.11;9.69;;;;;;;21.56;59.22;99399.99;363513;146;857456;-67
2021/08/17 01:30:14;;;;;;;17.10;9.88;;;;;;;21.55;58.91;99400.11;363506;147;864981;-66
2021/08/17 01:31:16;;;;;;;19.21;10.41;;;;;;;21.51;59.20;99406.51;364771;146;857240;-66
2021/08/17 01:32:18;;;;;;;19.27;10.10;;;;;;;21.47;59.38;99405.84;368620;146;859448;-66
2021/08/17 01:33:20;;;;;;;20.32;10.55;;;;;;;;;;367762;146;866022;-66
2021/08/17 01:34:21;;;;;;;14.16;9.76;;;;;;;;;;362788;146;859387;-66
2021/08/17 01:35:24;;;;;;;15.46;10.00;;;;;;;;;;363917;147;858701;-66
2021/08/17 01:36:26;;;;;;;17.92;10.24;;;;;;;;;;364451;146;857296;-67
2021/08/17 01:37:28;;;;;;;18.66;10.43;;;;;;;;;;366311;146;859692;-67
2021/08/17 01:38:29;;;;;;;14.64;9.80;;;;;;;;;;362683;146;857314;-67
2021/08/17 01:39:31;;;;;;;16.61;10.36;;;;;;;;;;365829;147;857154;-67
2021/08/17 01:40:33;;;;;;;17.63;10.19;;;;;;;;;;366299;147;857719;-67
2021/08/17 01:41:35;;;;;;;16.51;9.91;;;;;;;;;;363332;146;857521;-66
2021/08/17 01:42:42;;;;;;;17.31;10.51;;;;;;;;;;365933;147;858556;-68
2021/08/17 01:43:44;;;;;;;18.91;11.04;;;;;;;;;;365856;147;859223;-66
2021/08/17 01:44:46;;;;;;;15.18;9.89;;;;;;;;;;362310;146;859048;-65
2021/08/17 01:45:54;;;;;;;15.67;10.80;;;;;;;;;;366145;146;857171;-67
2021/08/17 01:46:57;;;;;;;;;;;;;;;;;;371569;146;858567;-66
2021/08/17 01:47:59;;;;;;;17.18;10.16;;;;;;;;;;364593;145;858135;-67
2021/08/17 01:49:01;;;;;;;19.89;10.56;;;;;;;;;;363875;146;857471;-67
2021/08/17 01:50:03;;;;;;;17.71;9.47;;;;;;;;;;361993;148;857350;-67
2021/08/17 01:51:04;;;;;;;18.73;10.81;;;;;;;;;;363125;146;865189;-65
2021/08/17 01:52:06;;;;;;;17.07;9.84;;;;;;;;;;357544;148;859266;-66
2021/08/17 01:53:08;;;;;;;15.08;10.09;;;;;;;;;;360527;146;864078;-66
2021/08/17 01:54:10;;;;;;;18.88;10.29;;;;;;;;;;359326;150;858936;-66
2021/08/17 01:55:11;;;;;;;14.71;10.05;;;;;;;;;;362545;146;866177;-66
2021/08/17 01:56:14;;;;;;;19.21;10.05;;;;;;;;;;363679;145;865971;-66
2021/08/17 01:57:15;;;;;;;18.73;10.71;;;;;;;;;;356434;151;859452;-66
2021/08/17 01:58:18;;;;;;;19.56;10.27;;;;;;;;;;355960;151;857975;-64
2021/08/17 01:59:20;;;;;;;17.82;9.61;;;;;;;;;;347450;153;857682;-66
2021/08/17 02:00:22;;;;;;;17.11;10.16;;;;;;;;;;357371;148;857916;-66
2021/08/17 02:01:24;;;;;;;16.87;9.53;;;;;;;;;;364763;145;866596;-66
2021/08/17 02:02:25;;;;;;;17.09;9.85;;;;;;;;;;364054;146;858363;-66
2021/08/17 02:03:27;;;;;;;13.76;9.71;;;;;;;;;;363293;146;857310;-64
2021/08/17 02:04:28;;;;;;;14.56;10.05;;;;;;;;;;363866;148;857308;-65
2021/08/17 02:05:30;;;;;;;21.19;10.59;;;;;;;;;;364337;145;857461;-67
2021/08/17 02:06:32;;;;;;;17.84;9.94;;;;;;;;;;364191;145;857400;-68
2021/08/17 02:07:33;;;;;;;13.69;9.67;;;;;;;;;;359738;147;857368;-67
2021/08/17 02:08:35;;;;;;;20.02;10.31;;;;;;;;;;356419;151;857283;-68
2021/08/17 02:09:37;;;;;;;16.54;10.34;;;;;;;;;;356258;151;858199;-66
2021/08/17 02:10:40;;;;;;;16.32;10.59;;;;;;;;;;348797;152;859518;-66
2021/08/17 02:11:41;;;;;;;19.73;10.08;;;;;;;;;;359403;150;858513;-64
2021/08/17 02:12:43;;;;;;;17.51;10.56;;;;;;;;;;361549;147;865910;-64
2021/08/17 02:13:44;;;;;;;21.40;10.45;;;;;;;;;;362635;146;859478;-65
2021/08/17 02:14:46;;;;;;;18.59;10.51;;;;;;;;;;364726;147;864706;-64
2021/08/17 02:15:48;;;;;;;16.57;10.49;;;;;;;;;;364636;147;864965;-64
2021/08/17 02:16:51;;;;;;;17.87;10.84;;;;;;;;;;362043;145;858003;-65
2021/08/17 02:17:53;;;;;;;15.87;10.81;;;;;;;;;;365095;146;857318;-64
2021/08/17 02:18:55;;;;;;;16.93;10.81;;;;;;;;;;367697;146;857113;-64
2021/08/17 02:19:57;;;;;;;19.70;10.71;;;;;;;;;;358712;148;866433;-64
2021/08/17 02:20:59;;;;;;;16.42;10.62;;;;;;;;;;352617;148;858753;-66
2021/08/17 02:22:01;;;;;;;16.35;10.08;;;;;;;;;;359848;149;865661;-66
2021/08/17 02:23:02;;;;;;;19.69;10.66;;;;;;;;;;358161;149;857341;-66
2021/08/17 02:24:04;;;;;;;18.67;10.99;;;;;;;;;;358655;148;864932;-66
2021/08/17 02:25:07;;;;;;;16.00;10.48;;;;;;;;;;358513;149;857363;-66
2021/08/17 02:26:08;;;;;;;16.17;10.63;;;;;;;;;;358060;149;857072;-66
2021/08/17 02:27:10;;;;;;;18.15;10.66;;;;;;;;;;358856;149;866094;-66
2021/08/17 02:28:12;;;;;;;18.16;10.72;;;;;;;;;;358808;149;857326;-66
2021/08/17 02:29:13;;;;;;;18.61;10.34;;;;;;;;;;359818;149;857335;-66
2021/08/17 02:30:16;;;;;;;17.47;10.80;;;;;;;;;;357437;147;857235;-66
2021/08/17 02:31:18;;;;;;;18.41;10.83;;;;;;;;;;359104;149;857357;-66
2021/08/17 02:32:20;;;;;;;16.33;10.14;;;;;;;;;;359036;149;857290;-66
2021/08/17 02:33:21;;;;;;;17.26;10.03;;;;;;;;;;359628;149;866644;-66
2021/08/17 02:34:23;;;;;;;19.83;11.03;;;;;;;;;;359076;149;858948;-66
2021/08/17 02:35:25;;;;;;;19.04;10.94;;;;;;;;;;358858;149;865440;-66
2021/08/17 02:36:27;;;;;;;16.99;10.82;;;;;;;;;;359852;149;857930;-66
2021/08/17 02:37:28;;;;;;;15.11;10.18;;;;;;;;;;359856;149;857832;-66
2021/08/17 02:38:30;;;;;;;18.08;10.56;;;;;;;;;;359789;148;857364;-66
2021/08/17 02:39:31;;;;;;;18.77;10.71;;;;;;;;;;359702;149;857295;-66
2021/08/17 02:40:35;;;;;;;18.13;10.31;;;;;;;;;;357665;149;866272;-66
2021/08/17 02:41:36;;;;;;;17.05;9.94;;;;;;;;;;355411;148;857400;-66
2021/08/17 02:42:38;;;;;;;15.49;9.65;;;;;;;;;;358558;149;857302;-66
2021/08/17 02:43:39;;;;;;;15.75;11.03;;;;;;;;;;353578;149;857312;-66
2021/08/17 02:44:41;;;;;;;17.43;10.81;;;;;;;;;;353374;149;859010;-66
2021/08/17 02:45:43;;;;;;;15.75;10.06;;;;;;;;;;359179;149;858369;-66
2021/08/17 02:46:45;;;;;;;15.54;10.04;;;;;;;;;;358859;149;857311;-66
2021/08/17 02:47:46;;;;;;;17.45;9.44;;;;;;;;;;359981;149;857646;-66
2021/08/17 02:48:48;;;;;;;17.89;10.11;;;;;;;;;;359378;149;857724;-66
2021/08/17 02:49:49;;;;;;;18.39;10.94;;;;;;;;;;357321;149;857406;-65
2021/08/17 02:50:52;;;;;;;19.69;10.54;;;;;;;;;;359636;149;857284;-67
2021/08/17 02:51:53;;;;;;;19.31;11.60;;;;;;;;;;358584;149;857319;-67
2021/08/17 02:52:55;;;;;;;20.15;10.78;;;;;;;;;;358692;149;857280;-67
2021/08/17 02:53:57;;;;;;;17.76;10.56;;;;;;;;;;359456;149;858896;-67
2021/08/17 02:54:58;;;;;;;18.65;10.79;;;;;;;;;;359086;149;859052;-67
2021/08/17 02:56:00;;;;;;;18.44;10.89;;;;;;;;;;356105;149;859883;-67
2021/08/17 02:57:02;;;;;;;18.39;10.89;;;;;;;;;;357069;147;866808;-65
2021/08/17 02:58:08;;;;;;;16.98;11.05;;;;;;;;;;354133;149;859114;-66
2021/08/17 02:59:10;;;;;;;19.43;10.61;;;;;;;;;;358136;149;857356;-66
2021/08/17 03:00:13;;;;;;;19.23;11.04;;;;;;;;;;357994;149;857217;-66
2021/08/17 03:01:15;;;;;;;21.00;10.95;;;;;;;;;;359529;147;857243;-66
2021/08/17 03:02:16;;;;;;;19.71;11.19;;;;;;;;;;356244;149;857265;-66
2021/08/17 03:03:18;;;;;;;17.14;11.04;;;;;;;;;;358004;147;864788;-64
2021/08/17 03:04:20;;;;;;;18.02;11.68;;;;;;;;;;357876;148;857243;-63
2021/08/17 03:05:22;;;;;;;17.17;11.16;;;;;;;;;;352563;152;865052;-65
2021/08/17 03:06:25;;;;;;;20.45;11.74;;;;;;;;;;352644;152;857938;-64
2021/08/17 03:07:26;;;;;;;19.66;11.11;;;;;;;;;;358526;149;865491;-64
2021/08/17 03:08:28;;;;;;;20.81;11.96;;;;;;;;;;359760;147;857323;-64
2021/08/17 03:09:29;;;;;;;19.96;12.24;;;;;;;;;;359518;149;857808;-64
2021/08/17 03:10:33;;;;;;;16.59;11.76;;;;;;;;;;358110;148;857399;-65
2021/08/17 03:11:34;;;;;;;27.71;12.16;;;;;;;;;;359133;149;859088;-65
2021/08/17 03:12:36;;;;;;;19.54;11.66;;;;;;;;;;359770;149;857332;-66
2021/08/17 03:13:38;;;;;;;20.93;11.61;;;;;;;;;;358627;147;859074;-66
2021/08/17 03:14:40;;;;;;;25.11;12.67;;;;;;;;;;358293;149;859985;-65
2021/08/17 03:15:41;;;;;;;25.16;12.12;;;;;;;;;;359812;149;859044;-66
2021/08/17 03:16:45;;;;;;;21.17;11.94;;;;;;;;;;359502;149;857747;-66
2021/08/17 03:17:46;;;;;;;20.60;12.14;;;;;;;;;;356874;147;857450;-66
2021/08/17 03:18:48;;;;;;;26.80;12.55;;;;;;;;;;357527;149;867307;-66
2021/08/17 03:19:50;;;;;;;21.11;12.18;;;;;;;;;;358948;149;858967;-65
2021/08/17 03:20:53;;;;;;;28.59;12.69;;;;;;;;;;349769;151;859724;-66
2021/08/17 03:21:55;;;;;;;26.04;12.66;;;;;;;;;;349755;150;865929;-66
2021/08/17 03:22:57;;;;;;;21.94;11.10;;;;;;;;;;347030;151;857350;-66
2021/08/17 03:23:59;;;;;;;26.28;12.57;;;;;;;;;;353893;148;857304;-66
2021/08/17 03:25:01;;;;;;;21.85;11.81;;;;;;;;;;351177;149;857422;-66
2021/08/17 03:26:02;;;;;;;25.47;12.39;;;;;;;;;;354822;148;859107;-66
2021/08/17 03:27:04;;;;;;;26.15;12.06;;;;;;;;;;355300;151;865956;-66
2021/08/17 03:28:05;;;;;;;27.12;12.20;;;;;;;;;;353681;148;858892;-66
2021/08/17 03:29:07;;;;;;;21.31;12.45;;;;;;;;;;353206;148;859177;-67
2021/08/17 03:30:12;;;;;;;27.84;12.04;;;;;;;;;;355618;151;865633;-66
2021/08/17 03:31:13;;;;;;;24.84;12.66;;;;;;;;;;355742;151;858198;-66
2021/08/17 03:32:15;;;;;;;25.28;12.44;;;;;;;;;;354377;150;857277;-67
2021/08/17 03:33:17;;;;;;;20.30;11.89;;;;;;;;;;353237;148;859994;-67
2021/08/17 03:34:18;;;;;;;23.84;12.79;;;;;;;;;;354393;152;857703;-67
2021/08/17 03:35:20;;;;;;;21.14;12.24;;;;;;;;;;354798;150;857229;-67
2021/08/17 03:36:22;;;;;;;18.75;11.53;;;;;;;;;;351922;148;857307;-67
2021/08/17 03:37:24;;;;;;;22.81;12.96;;;;;;;;;;355694;151;865974;-66
2021/08/17 03:38:25;;;;;;;20.23;11.96;;;;;;;;;;355795;151;857355;-66
2021/08/17 03:39:27;;;;;;;21.32;11.64;;;;;;;;;;345500;152;857368;-66
2021/08/17 03:40:30;;;;;;;23.96;12.37;;;;;;;;;;346139;152;857455;-66
2021/08/17 03:41:32;;;;;;;19.91;11.86;;;;;;;;;;345704;153;857372;-67
2021/08/17 03:42:33;;;;;;;23.85;11.99;;;;;;;;;;348070;151;865869;-66
2021/08/17 03:43:36;;;;;;;21.19;11.84;;;;;;;;;;345225;152;860701;-66
2021/08/17 03:44:38;;;;;;;25.59;12.15;;;;;;;;;;346162;153;866086;-67
2021/08/17 03:45:39;;;;;;;25.14;12.24;;;;;;;;;;350161;151;865651;-66
2021/08/17 03:46:43;;;;;;;20.80;12.19;;;;;;;;;;344650;152;864928;-66
2021/08/17 03:47:44;;;;;;;22.31;10.17;;;;;;;;;;350203;152;857458;-66
2021/08/17 03:48:46;;;;;;;23.01;11.26;;;;;;;;;;350523;153;857319;-66
2021/08/17 03:49:47;;;;;;;24.54;12.18;;;;;;;;;;348248;151;857380;-65
2021/08/17 03:50:50;;;;;;;21.76;12.04;;;;;;;;;;345537;152;857264;-66
2021/08/17 03:51:52;;;;;;;24.81;11.53;;;;;;;;;;347390;150;857372;-66
2021/08/17 03:52:54;;;;;;;24.06;11.36;;;;;;;;;;347156;150;867014;-66
2021/08/17 03:53:55;;;;;;;25.09;11.42;;;;;;;;;;345929;152;857312;-66
2021/08/17 03:54:57;;;;;;;27.22;11.26;;;;;;;;;;344772;152;859128;-65
2021/08/17 03:55:58;;;;;;;19.33;11.06;;;;;;;;;;346122;153;858204;-67
2021/08/17 03:57:00;;;;;;;25.92;11.53;;;;;;;;;;347178;150;860302;-67
2021/08/17 03:58:02;;;;;;;22.26;12.06;;;;;;;;;;347668;150;859032;-67
2021/08/17 03:59:03;;;;;;;24.18;11.84;;;;;;;;;;348971;153;858015;-67
2021/08/17 04:00:10;;;;;;;23.65;11.68;;;;;;;;;;348506;150;857471;-67
2021/08/17 04:01:14;;;;;;;24.32;11.79;;;;;;;;;;346535;150;857441;-67
2021/08/17 04:02:15;;;;;;;30.11;12.86;;;;;;;;;;345383;150;857220;-67
2021/08/17 04:03:17;;;;;;;20.16;10.64;;;;;;;;;;348561;152;857355;-67
2021/08/17 04:04:19;;;;;;;21.73;11.77;;;;;;;;;;346566;151;864617;-67
2021/08/17 04:05:20;;;;;;;19.87;11.45;;;;;;;;;;347885;152;857892;-67
2021/08/17 04:06:22;;;;;;;19.72;11.26;;;;;;;;;;347145;150;857397;-66
2021/08/17 04:07:24;;;;;;;21.07;10.89;;;;;;;;;;349058;151;857342;-66
2021/08/17 04:08:25;;;;;;;24.97;11.29;;;;;;;;;;346038;152;859555;-66
2021/08/17 04:09:27;;;;;;;25.81;11.40;;;;;;;;;;345505;152;858292;-66
2021/08/17 04:10:30;;;;;;;26.58;10.81;;;;;;;;;;346621;152;865633;-66
2021/08/17 04:11:32;;;;;;;21.24;11.33;;;;;;;;;;348607;153;857839;-68
2021/08/17 04:12:33;;;;;;;24.38;11.59;;;;;;;;;;352821;148;866645;-69
2021/08/17 04:13:37;;;;;;;18.57;10.99;;;;;;;;;;348567;153;858365;-69
2021/08/17 04:14:38;;;;;;;19.83;10.79;;;;;;;;;;345829;151;858898;-68
2021/08/17 04:15:40;;;;;;;22.11;10.26;;;;;;;;;;347400;152;857364;-66
2021/08/17 04:16:43;;;;;;;19.89;10.61;;;;;;;;;;348705;152;858363;-66
2021/08/17 04:17:44;;;;;;;22.82;11.60;;;;;;;;;;345907;153;858550;-68
2021/08/17 04:18:46;;;;;;;33.34;10.53;;;;;;;;;;347475;151;866661;-66
2021/08/17 04:19:48;;;;;;;21.98;10.89;;;;;;;;;;346223;150;857243;-67
2021/08/17 04:20:50;;;;;;;30.41;11.27;;;;;;;;;;345020;153;858221;-66
2021/08/17 04:21:52;;;;;;;21.72;11.09;;;;;;;;;;346241;151;857491;-67
2021/08/17 04:22:53;;;;;;;28.40;10.99;;;;;;;;;;348157;151;857523;-67
2021/08/17 04:23:57;;;;;;;29.62;12.09;;;;;;;;;;351881;151;860445;-67
2021/08/17 04:24:58;;;;;;;25.73;11.74;;;;;;;;;;353498;149;858133;-66
2021/08/17 04:26:00;;;;;;;25.51;11.29;;;;;;;;;;351951;148;858358;-66
2021/08/17 04:27:02;;;;;;;23.89;10.97;;;;;;;;;;353072;149;857544;-66
2021/08/17 04:28:04;;;;;;;20.71;11.15;;;;;;;;;;354374;151;857335;-66
2021/08/17 04:29:06;;;;;;;24.61;10.97;;;;;;;;;;352939;149;859808;-66
2021/08/17 04:30:09;;;;;;;20.95;11.11;;;;;;;;;;350646;149;866568;-67
2021/08/17 04:31:11;;;;;;;24.35;11.36;;;;;;;;;;352713;149;857214;-66
2021/08/17 04:32:13;;;;;;;21.11;10.59;;;;;;;;;;353685;151;858552;-66
2021/08/17 04:33:14;;;;;;;22.16;10.39;;;;;;;;;;353606;150;857439;-67
2021/08/17 04:34:16;;;;;;;27.55;11.26;;;;;;;;;;350547;150;857329;-67
2021/08/17 04:35:19;;;;;;;18.67;10.56;;;;;;;;;;355764;148;857238;-67
2021/08/17 04:36:21;;;;;;;18.80;10.44;;;;;;;;;;352687;149;857317;-66
2021/08/17 04:37:23;;;;;;;19.36;10.31;;;;;;;;;;351522;149;864828;-66
2021/08/17 04:38:25;;;;;;;21.36;10.85;;;;;;;;;;355739;151;857913;-66
2021/08/17 04:39:26;;;;;;;22.96;10.54;;;;;;;;;;350689;151;857425;-68
2021/08/17 04:40:29;;;;;;;19.77;10.02;;;;;;;;;;352082;150;859004;-67
2021/08/17 04:41:30;;;;;;;23.82;10.95;;;;;;;;;;353939;149;860154;-66
2021/08/17 04:42:32;;;;;;;21.85;10.92;;;;;;;;;;352347;152;857437;-66
2021/08/17 04:43:33;;;;;;;20.03;10.62;;;;;;;;;;346238;154;859096;-65
2021/08/17 04:44:35;;;;;;;26.51;9.71;;;;;;;;;;343765;153;857825;-66
2021/08/17 04:45:36;;;;;;;17.26;10.28;;;;;;;;;;344518;153;857296;-66
2021/08/17 04:46:40;;;;;;;24.85;10.23;;;;;;;;;;348232;150;864938;-67
2021/08/17 04:47:45;;;;;;;19.61;10.07;;;;;;;;;;346076;153;858132;-66
2021/08/17 04:48:49;;;;;;;19.92;10.69;;;;;;;;;;347137;151;859436;-67
2021/08/17 04:49:50;;;;;;;23.62;10.32;;;;;;;;;;344621;154;858310;-67
2021/08/17 04:50:54;;;;;;;25.20;10.88;;;;;;;;;;347604;150;858241;-67
2021/08/17 04:51:55;;;;;;;24.36;9.95;;;;;;;;;;344466;152;857343;-67
2021/08/17 04:52:57;;;;;;;17.64;9.96;;;;;;;;;;347977;152;858271;-67
2021/08/17 04:53:58;;;;;;;17.01;9.67;;;;;;;;;;349571;151;857250;-66
2021/08/17 04:55:00;;;;;;;21.14;10.01;;;;;;;;;;346954;151;858443;-66
2021/08/17 04:56:02;;;;;;;18.93;10.29;;;;;;;;;;348658;152;857431;-66
2021/08/17 04:57:03;;;;;;;19.30;10.31;;;;;;;;;;346867;150;864632;-67
2021/08/17 04:58:05;;;;;;;21.03;10.52;;;;;;;;;;347672;150;858907;-67
2021/08/17 04:59:07;;;;;;;21.31;10.29;;;;;;;;;;345814;152;865796;-67
2021/08/17 05:00:10;;;;;;;24.13;11.46;;;;;;;;;;346943;154;859537;-65
2021/08/17 05:01:12;;;;;;;23.27;10.96;;;;;;;;;;345355;150;867071;-65
2021/08/17 05:02:14;;;;;;;17.45;10.25;;;;;;;;;;347259;152;857315;-65
2021/08/17 05:03:16;;;;;;;21.21;9.81;;;;;;;;;;345902;152;866011;-64
2021/08/17 05:04:18;;;;;;;22.62;9.25;;;;;;;;;;339883;156;858510;-65
2021/08/17 05:05:20;;;;;;;19.61;10.60;;;;;;;;;;353481;148;865855;-66
2021/08/17 05:06:23;;;;;;;14.89;9.65;;;;;;;;;;362003;145;857040;-64
2021/08/17 05:07:24;;;;;;;17.53;10.41;;;;;;;;;;359016;148;857369;-66
2021/08/17 05:08:26;;;;;;;21.48;10.78;;;;;;;;;;355136;148;857862;-67
2021/08/17 05:09:27;;;;;;;17.76;10.14;;;;;;;;;;361178;146;857347;-67
2021/08/17 05:10:31;;;;;;;22.27;10.04;;;;;;;;;;359380;146;857353;-67
2021/08/17 05:11:32;;;;;;;14.31;9.73;;;;;;;;;;356049;148;859729;-66
2021/08/17 05:12:34;;;;;;;15.21;9.19;;;;;;;;;;359089;145;857296;-67
2021/08/17 05:13:36;;;;;;;17.35;9.55;;;;;;;;;;360244;146;857360;-67
2021/08/17 05:14:38;;;;;;;16.56;9.93;;;;;;;;;;360252;145;866729;-66
2021/08/17 05:15:39;;;;;;;21.56;8.97;;;;;;;;;;359296;147;857853;-66
2021/08/17 05:16:42;;;;;;;18.10;9.61;;;;;;;;;;360198;146;864921;-65
2021/08/17 05:17:44;;;;;;;15.24;9.33;;;;;;;;;;357298;146;857307;-66
2021/08/17 05:18:46;;;;;;;16.70;9.76;;;;;;;;;;361078;148;867992;-66
2021/08/17 05:19:47;;;;;;;12.66;9.11;;;;;;;;;;361420;145;858941;-65
2021/08/17 05:20:49;;;;;;;17.75;9.85;;;;;;;;;;361944;146;857247;-67
2021/08/17 05:21:53;;;;;;;18.49;10.05;;;;;;;;;;360875;145;858304;-66
2021/08/17 05:22:55;;;;;;;14.93;8.83;;;;;;;;;;361574;146;859273;-67
2021/08/17 05:23:56;;;;;;;13.76;8.84;;;;;;;;;;363196;146;859952;-66
2021/08/17 05:24:58;;;;;;;15.60;9.08;;;;;;;;;;358654;148;857787;-66
2021/08/17 05:25:59;;;;;;;20.62;9.58;;;;;;;;;;361924;148;857408;-66
2021/08/17 05:27:01;;;;;;;18.46;9.36;;;;;;;;;;360347;146;858865;-66
2021/08/17 05:28:03;;;;;;;17.99;9.42;;;;;;;;;;360678;146;866611;-67
2021/08/17 05:29:05;;;;;;;17.01;9.08;;;;;;;;;;359261;145;857833;-67
2021/08/17 05:30:07;;;;;;;13.89;9.15;;;;;;;;;;361746;145;859211;-66
2021/08/17 05:31:09;;;;;;;17.92;9.65;;;;;;;;;;360868;146;857393;-66
2021/08/17 05:32:10;;;;;;;14.17;8.71;;;;;;;;;;361307;149;858286;-66
2021/08/17 05:33:12;;;;;;;23.12;9.66;;;;;;;;;;359271;150;857223;-66
2021/08/17 05:34:13;;;;;;;18.77;9.27;;;;;;;;;;361031;147;857245;-65
2021/08/17 05:35:15;;;;;;;16.14;9.05;;;;;;;;;;353378;148;857284;-66
2021/08/17 05:36:18;;;;;;;15.27;9.35;;;;;;;;;;350760;151;857370;-65
2021/08/17 05:37:19;;;;;;;19.94;9.80;;;;;;;;;;344831;154;857287;-66
2021/08/17 05:38:21;;;;;;;17.84;9.58;;;;;;;;;;345671;151;860372;-66
2021/08/17 05:39:23;;;;;;;19.26;9.24;;;;;;;;;;343428;154;858804;-65
2021/08/17 05:40:24;;;;;;;17.52;9.59;;;;;;;;;;348230;151;864950;-67
2021/08/17 05:41:26;;;;;;;17.11;8.24;;;;;;;;;;346437;151;857372;-66
2021/08/17 05:42:28;;;;;;;20.11;9.14;;;;;;;;;;356400;149;856380;-66
2021/08/17 05:43:29;;;;;;;13.89;8.42;;;;;;;;;;355459;149;865638;-66
2021/08/17 05:44:31;;;;;;;18.54;8.94;;;;;;;;;;353298;150;857954;-65
2021/08/17 05:45:33;;;;;;;16.21;8.27;;;;;;;;;;353179;150;857869;-66
2021/08/17 05:46:35;;;;;;;20.14;9.31;;;;;;;;;;356714;150;857323;-68
2021/08/17 05:47:42;;;;;;;14.70;8.46;;;;;;;;;;352514;150;865286;-67
2021/08/17 05:48:45;;;;;;;13.47;8.46;;;;;;;;;;351663;150;859067;-67
2021/08/17 05:49:47;;;;;;;17.72;8.97;;;;;;;;;;352284;150;857267;-67
2021/08/17 05:50:49;;;;;;;19.67;10.05;;;;;;;;;;343629;155;865071;-68
2021/08/17 05:51:51;;;;;;;18.51;8.56;;;;;;;;;;347347;150;859050;-67
2021/08/17 05:52:52;;;;;;;20.50;9.49;;;;;;;;;;347536;151;857849;-66
2021/08/17 05:53:54;;;;;;;28.04;8.85;;;;;;;;;;348062;151;857340;-66
2021/08/17 05:54:55;;;;;;;18.20;8.94;;;;;;;;;;345984;151;857360;-67